Aeroporto :
LOGIN :

Iscrizione | Disclaimer

   EN    FR    IT 

 










Sommario :    VFR   VFR Marginale   IFR   IFR Intensivo   IFR Molto Intensivo
Visibilità : 
Base nubi : 
>= 8 km
>= 3000ft
5 / 8 km
1000 / 3000 ft
1500m / 5 km
500 / 1000 ft
800 / 1500m
200 / 500 ft
< 800m
< 200 ft
Simboli :   Temporali  Nebbia  Neve Forte  Precipitazioni Forti  Vento > 20 kt
SIGMETs :   Varie  Temporali  Ghiacco  Turbolenza  Onda orograficha  Ceneri Vulcaniche






- Altitudine del aeroporto : 1411 ft
- Codice IATA : GVA


LSGG - Genève Cointrin

ULTIMO METAR :
  • 070850Z 04002KT 9999 FEW015 BKN030 16/13 Q1027 NOSIG

METARs OBSOLETI :
  • 070820Z 07002KT 9999 FEW020 BKN030 15/12 Q1027 NOSIG
  • 070750Z 07002KT 9999 FEW020 BKN030 14/12 Q1027 NOSIG
  • 070720Z 03001KT 9999 FEW025 BKN030 14/12 Q1027 NOSIG
  • 070650Z 05002KT 9999 FEW015 BKN030 13/12 Q1027 NOSIG
  • 070620Z 12001KT 9999 FEW015 BKN030 13/12 Q1027 NOSIG
  • 070550Z 00000KT 9999 FEW025 BKN035 12/11 Q1027 NOSIG

TAF TAF LSGG
Valido dal 07 a 09 ore il 08 a 15 ore UTC


070825Z 0709/0815 VRB02KT 9999 FEW015 BKN030 TX21/0715Z TN12/0806Z TX18/0815Z
TEMPO 0715/0718 23009KT
ATIS : +41 22 417 40 81



MetMap, La meteo Aeronautica in un colpo d'occhio ! - Copyright ORBIFLY Dicembre 2007 - Disclaimer

ORBIFLY MET'MAP TEAM :

Programmazione e sviluppo : Alexandra Zaïnal
Concezione : Baudouin d'Aumeries
Supporto tecnico e logistico : Manuel Goepfert
Aiuto : Marc-Olivier Méhu
Aiuto per la traduzione : Arnaldo La Scala




FONTI E CREDITI :

   NOAA